sensor_id;sensor_type;location;lat;lon;timestamp;P1;durP1;ratioP1;P2;durP2;ratioP2
74630;SDS011;63138;55.082;38.804;2023-05-19T00:00:15;14.63;;;10.52;;
74630;SDS011;63138;55.082;38.804;2023-05-19T00:02:43;18.23;;;10.80;;
74630;SDS011;63138;55.082;38.804;2023-05-19T00:05:10;16.98;;;10.80;;
74630;SDS011;63138;55.082;38.804;2023-05-19T00:07:39;16.20;;;11.57;;
74630;SDS011;63138;55.082;38.804;2023-05-19T00:10:08;14.27;;;10.75;;
74630;SDS011;63138;55.082;38.804;2023-05-19T00:12:34;18.42;;;11.65;;
74630;SDS011;63138;55.082;38.804;2023-05-19T00:15:01;20.07;;;12.03;;
74630;SDS011;63138;55.082;38.804;2023-05-19T00:17:31;19.20;;;11.75;;
74630;SDS011;63138;55.082;38.804;2023-05-19T00:19:59;18.58;;;12.35;;
74630;SDS011;63138;55.082;38.804;2023-05-19T00:22:26;21.02;;;12.70;;
74630;SDS011;63138;55.082;38.804;2023-05-19T00:24:52;16.83;;;11.13;;
74630;SDS011;63138;55.082;38.804;2023-05-19T00:27:18;18.83;;;12.13;;
74630;SDS011;63138;55.082;38.804;2023-05-19T00:29:44;18.15;;;13.82;;
74630;SDS011;63138;55.082;38.804;2023-05-19T00:32:10;18.63;;;12.02;;
74630;SDS011;63138;55.082;38.804;2023-05-19T00:34:35;20.93;;;13.17;;
74630;SDS011;63138;55.082;38.804;2023-05-19T00:37:01;20.65;;;13.93;;
74630;SDS011;63138;55.082;38.804;2023-05-19T00:39:27;18.33;;;12.32;;
74630;SDS011;63138;55.082;38.804;2023-05-19T00:41:53;22.13;;;12.57;;
74630;SDS011;63138;55.082;38.804;2023-05-19T00:44:20;20.13;;;13.10;;
74630;SDS011;63138;55.082;38.804;2023-05-19T00:46:46;21.25;;;14.10;;
74630;SDS011;63138;55.082;38.804;2023-05-19T00:49:12;21.65;;;14.38;;
74630;SDS011;63138;55.082;38.804;2023-05-19T00:51:39;21.50;;;13.60;;
74630;SDS011;63138;55.082;38.804;2023-05-19T00:54:05;18.80;;;12.70;;
74630;SDS011;63138;55.082;38.804;2023-05-19T00:56:31;17.45;;;12.77;;
74630;SDS011;63138;55.082;38.804;2023-05-19T00:58:59;19.05;;;13.25;;
74630;SDS011;63138;55.082;38.804;2023-05-19T01:01:25;18.65;;;12.52;;
74630;SDS011;63138;55.082;38.804;2023-05-19T01:03:52;19.35;;;13.30;;
74630;SDS011;63138;55.082;38.804;2023-05-19T01:06:21;18.87;;;12.97;;
74630;SDS011;63138;55.082;38.804;2023-05-19T01:08:48;19.50;;;12.95;;
74630;SDS011;63138;55.082;38.804;2023-05-19T01:11:16;24.80;;;15.43;;
74630;SDS011;63138;55.082;38.804;2023-05-19T01:13:42;17.73;;;12.65;;
74630;SDS011;63138;55.082;38.804;2023-05-19T01:19:07;17.35;;;11.73;;
74630;SDS011;63138;55.082;38.804;2023-05-19T01:22:05;26.25;;;14.02;;
74630;SDS011;63138;55.082;38.804;2023-05-19T01:27:46;19.42;;;13.05;;
74630;SDS011;63138;55.082;38.804;2023-05-19T01:33:00;21.02;;;13.98;;
74630;SDS011;63138;55.082;38.804;2023-05-19T01:35:29;21.45;;;13.48;;
74630;SDS011;63138;55.082;38.804;2023-05-19T01:37:57;27.38;;;14.20;;
74630;SDS011;63138;55.082;38.804;2023-05-19T01:40:25;20.33;;;13.95;;
74630;SDS011;63138;55.082;38.804;2023-05-19T01:42:52;19.30;;;12.83;;
74630;SDS011;63138;55.082;38.804;2023-05-19T01:45:19;20.73;;;13.95;;
74630;SDS011;63138;55.082;38.804;2023-05-19T01:47:46;24.50;;;15.23;;
74630;SDS011;63138;55.082;38.804;2023-05-19T01:50:14;25.42;;;16.33;;
74630;SDS011;63138;55.082;38.804;2023-05-19T01:52:41;21.90;;;15.25;;
74630;SDS011;63138;55.082;38.804;2023-05-19T01:55:08;22.47;;;15.53;;
74630;SDS011;63138;55.082;38.804;2023-05-19T02:00:06;21.52;;;16.08;;
74630;SDS011;63138;55.082;38.804;2023-05-19T02:02:49;22.38;;;15.93;;
74630;SDS011;63138;55.082;38.804;2023-05-19T02:05:22;24.35;;;15.65;;
74630;SDS011;63138;55.082;38.804;2023-05-19T02:10:49;22.75;;;15.52;;
74630;SDS011;63138;55.082;38.804;2023-05-19T02:13:20;22.65;;;15.27;;
74630;SDS011;63138;55.082;38.804;2023-05-19T02:15:52;22.08;;;13.20;;
74630;SDS011;63138;55.082;38.804;2023-05-19T02:18:20;21.67;;;15.25;;
74630;SDS011;63138;55.082;38.804;2023-05-19T02:20:49;22.23;;;14.63;;
74630;SDS011;63138;55.082;38.804;2023-05-19T02:23:15;22.67;;;14.80;;
74630;SDS011;63138;55.082;38.804;2023-05-19T02:25:41;22.52;;;14.30;;
74630;SDS011;63138;55.082;38.804;2023-05-19T02:28:07;22.20;;;14.10;;
74630;SDS011;63138;55.082;38.804;2023-05-19T02:30:33;19.30;;;14.40;;
74630;SDS011;63138;55.082;38.804;2023-05-19T02:33:00;17.38;;;12.95;;
74630;SDS011;63138;55.082;38.804;2023-05-19T02:35:26;19.73;;;13.25;;
74630;SDS011;63138;55.082;38.804;2023-05-19T02:37:52;24.00;;;14.00;;
74630;SDS011;63138;55.082;38.804;2023-05-19T02:40:19;17.45;;;13.18;;
74630;SDS011;63138;55.082;38.804;2023-05-19T02:42:46;19.75;;;14.10;;
74630;SDS011;63138;55.082;38.804;2023-05-19T02:45:12;18.70;;;13.23;;
74630;SDS011;63138;55.082;38.804;2023-05-19T02:47:40;17.63;;;12.77;;
74630;SDS011;63138;55.082;38.804;2023-05-19T02:50:06;18.13;;;13.17;;
74630;SDS011;63138;55.082;38.804;2023-05-19T02:52:33;18.70;;;14.85;;
74630;SDS011;63138;55.082;38.804;2023-05-19T02:54:59;19.05;;;13.05;;
74630;SDS011;63138;55.082;38.804;2023-05-19T02:57:25;21.80;;;14.18;;
74630;SDS011;63138;55.082;38.804;2023-05-19T02:59:51;19.23;;;13.07;;
74630;SDS011;63138;55.082;38.804;2023-05-19T03:02:17;22.23;;;13.50;;
74630;SDS011;63138;55.082;38.804;2023-05-19T03:04:43;23.02;;;14.40;;
74630;SDS011;63138;55.082;38.804;2023-05-19T03:07:10;22.38;;;14.40;;
74630;SDS011;63138;55.082;38.804;2023-05-19T03:09:38;27.38;;;14.07;;
74630;SDS011;63138;55.082;38.804;2023-05-19T03:12:04;20.40;;;15.37;;
74630;SDS011;63138;55.082;38.804;2023-05-19T03:14:36;21.88;;;15.85;;
74630;SDS011;63138;55.082;38.804;2023-05-19T03:17:05;22.63;;;15.05;;
74630;SDS011;63138;55.082;38.804;2023-05-19T03:19:34;20.17;;;14.20;;
74630;SDS011;63138;55.082;38.804;2023-05-19T03:22:00;20.27;;;14.05;;
74630;SDS011;63138;55.082;38.804;2023-05-19T03:24:26;20.73;;;14.83;;
74630;SDS011;63138;55.082;38.804;2023-05-19T03:26:54;22.45;;;14.90;;
74630;SDS011;63138;55.082;38.804;2023-05-19T03:29:20;22.58;;;15.80;;
74630;SDS011;63138;55.082;38.804;2023-05-19T03:31:46;22.90;;;14.93;;
74630;SDS011;63138;55.082;38.804;2023-05-19T03:34:14;21.80;;;15.03;;
74630;SDS011;63138;55.082;38.804;2023-05-19T03:36:40;24.83;;;15.38;;
74630;SDS011;63138;55.082;38.804;2023-05-19T03:39:11;21.30;;;16.08;;
74630;SDS011;63138;55.082;38.804;2023-05-19T03:41:37;23.73;;;15.27;;
74630;SDS011;63138;55.082;38.804;2023-05-19T03:44:03;32.03;;;17.50;;
74630;SDS011;63138;55.082;38.804;2023-05-19T03:46:29;21.50;;;15.65;;
74630;SDS011;63138;55.082;38.804;2023-05-19T03:48:57;26.50;;;17.33;;
74630;SDS011;63138;55.082;38.804;2023-05-19T03:51:42;23.20;;;17.38;;
74630;SDS011;63138;55.082;38.804;2023-05-19T03:54:28;25.02;;;16.60;;
74630;SDS011;63138;55.082;38.804;2023-05-19T03:56:55;22.80;;;16.10;;
74630;SDS011;63138;55.082;38.804;2023-05-19T03:59:23;25.27;;;14.90;;
74630;SDS011;63138;55.082;38.804;2023-05-19T04:01:49;22.00;;;14.98;;
74630;SDS011;63138;55.082;38.804;2023-05-19T04:04:16;22.45;;;16.85;;
74630;SDS011;63138;55.082;38.804;2023-05-19T04:06:44;21.30;;;14.88;;
74630;SDS011;63138;55.082;38.804;2023-05-19T04:09:11;27.47;;;17.87;;
74630;SDS011;63138;55.082;38.804;2023-05-19T04:11:38;22.45;;;16.33;;
74630;SDS011;63138;55.082;38.804;2023-05-19T04:14:05;23.77;;;16.20;;
74630;SDS011;63138;55.082;38.804;2023-05-19T04:16:31;25.77;;;18.27;;
74630;SDS011;63138;55.082;38.804;2023-05-19T04:18:57;22.02;;;15.07;;
74630;SDS011;63138;55.082;38.804;2023-05-19T04:21:42;21.67;;;15.00;;
74630;SDS011;63138;55.082;38.804;2023-05-19T04:26:53;24.85;;;16.55;;
74630;SDS011;63138;55.082;38.804;2023-05-19T04:29:19;22.38;;;17.17;;
74630;SDS011;63138;55.082;38.804;2023-05-19T04:31:45;23.15;;;16.05;;
74630;SDS011;63138;55.082;38.804;2023-05-19T04:34:11;25.47;;;17.77;;
74630;SDS011;63138;55.082;38.804;2023-05-19T04:36:37;20.17;;;14.57;;
74630;SDS011;63138;55.082;38.804;2023-05-19T04:39:03;17.92;;;12.50;;
74630;SDS011;63138;55.082;38.804;2023-05-19T04:41:32;23.10;;;14.85;;
74630;SDS011;63138;55.082;38.804;2023-05-19T04:44:00;19.33;;;13.53;;
74630;SDS011;63138;55.082;38.804;2023-05-19T04:46:27;21.88;;;13.70;;
74630;SDS011;63138;55.082;38.804;2023-05-19T04:48:55;20.48;;;12.82;;
74630;SDS011;63138;55.082;38.804;2023-05-19T04:51:22;21.23;;;13.07;;
74630;SDS011;63138;55.082;38.804;2023-05-19T04:53:53;18.38;;;12.02;;
74630;SDS011;63138;55.082;38.804;2023-05-19T04:56:20;19.97;;;12.60;;
74630;SDS011;63138;55.082;38.804;2023-05-19T04:58:46;20.65;;;12.50;;
74630;SDS011;63138;55.082;38.804;2023-05-19T05:01:12;21.05;;;14.30;;
74630;SDS011;63138;55.082;38.804;2023-05-19T05:03:40;21.67;;;12.85;;
74630;SDS011;63138;55.082;38.804;2023-05-19T05:06:06;22.50;;;14.38;;
74630;SDS011;63138;55.082;38.804;2023-05-19T05:08:33;17.83;;;12.97;;
74630;SDS011;63138;55.082;38.804;2023-05-19T05:10:59;20.00;;;14.40;;
74630;SDS011;63138;55.082;38.804;2023-05-19T05:13:25;21.70;;;14.02;;
74630;SDS011;63138;55.082;38.804;2023-05-19T05:15:52;18.23;;;10.95;;
74630;SDS011;63138;55.082;38.804;2023-05-19T05:18:19;12.05;;;8.32;;
74630;SDS011;63138;55.082;38.804;2023-05-19T05:20:45;14.00;;;8.40;;
74630;SDS011;63138;55.082;38.804;2023-05-19T05:23:13;13.55;;;7.32;;
74630;SDS011;63138;55.082;38.804;2023-05-19T05:25:43;16.00;;;10.05;;
74630;SDS011;63138;55.082;38.804;2023-05-19T05:28:10;17.60;;;10.32;;
74630;SDS011;63138;55.082;38.804;2023-05-19T05:30:37;20.52;;;13.48;;
74630;SDS011;63138;55.082;38.804;2023-05-19T05:33:05;20.53;;;11.67;;
74630;SDS011;63138;55.082;38.804;2023-05-19T05:35:35;14.00;;;7.10;;
74630;SDS011;63138;55.082;38.804;2023-05-19T05:38:02;8.10;;;5.40;;
74630;SDS011;63138;55.082;38.804;2023-05-19T05:40:28;12.00;;;4.93;;
74630;SDS011;63138;55.082;38.804;2023-05-19T05:42:54;11.00;;;4.47;;
74630;SDS011;63138;55.082;38.804;2023-05-19T05:45:23;10.60;;;4.53;;
74630;SDS011;63138;55.082;38.804;2023-05-19T05:47:52;6.50;;;4.00;;
74630;SDS011;63138;55.082;38.804;2023-05-19T05:50:18;8.68;;;4.13;;
74630;SDS011;63138;55.082;38.804;2023-05-19T05:52:45;10.27;;;4.68;;
74630;SDS011;63138;55.082;38.804;2023-05-19T05:55:13;7.20;;;4.40;;
74630;SDS011;63138;55.082;38.804;2023-05-19T05:57:42;8.33;;;4.40;;
74630;SDS011;63138;55.082;38.804;2023-05-19T06:00:10;8.10;;;5.35;;
74630;SDS011;63138;55.082;38.804;2023-05-19T06:02:45;11.98;;;7.15;;
74630;SDS011;63138;55.082;38.804;2023-05-19T06:05:15;10.73;;;6.28;;
74630;SDS011;63138;55.082;38.804;2023-05-19T06:07:43;12.93;;;7.43;;
74630;SDS011;63138;55.082;38.804;2023-05-19T06:10:13;14.73;;;9.07;;
74630;SDS011;63138;55.082;38.804;2023-05-19T06:12:39;14.57;;;9.75;;
74630;SDS011;63138;55.082;38.804;2023-05-19T06:15:07;17.00;;;10.57;;
74630;SDS011;63138;55.082;38.804;2023-05-19T06:17:47;18.30;;;10.60;;
74630;SDS011;63138;55.082;38.804;2023-05-19T06:20:13;16.93;;;12.17;;
74630;SDS011;63138;55.082;38.804;2023-05-19T06:22:40;15.18;;;9.52;;
74630;SDS011;63138;55.082;38.804;2023-05-19T06:25:07;16.80;;;7.88;;
74630;SDS011;63138;55.082;38.804;2023-05-19T06:27:34;9.35;;;5.25;;
74630;SDS011;63138;55.082;38.804;2023-05-19T06:30:01;9.43;;;5.60;;
74630;SDS011;63138;55.082;38.804;2023-05-19T06:32:32;11.43;;;5.43;;
74630;SDS011;63138;55.082;38.804;2023-05-19T06:34:58;10.55;;;6.63;;
74630;SDS011;63138;55.082;38.804;2023-05-19T06:37:24;14.40;;;7.80;;
74630;SDS011;63138;55.082;38.804;2023-05-19T06:39:53;13.47;;;8.93;;
74630;SDS011;63138;55.082;38.804;2023-05-19T06:42:19;12.35;;;7.32;;
74630;SDS011;63138;55.082;38.804;2023-05-19T06:44:56;14.77;;;9.23;;
74630;SDS011;63138;55.082;38.804;2023-05-19T06:47:23;14.70;;;8.88;;
74630;SDS011;63138;55.082;38.804;2023-05-19T06:49:49;19.80;;;11.60;;
74630;SDS011;63138;55.082;38.804;2023-05-19T06:52:21;19.43;;;11.23;;
74630;SDS011;63138;55.082;38.804;2023-05-19T06:54:48;20.23;;;12.02;;
74630;SDS011;63138;55.082;38.804;2023-05-19T06:57:15;28.00;;;13.18;;
74630;SDS011;63138;55.082;38.804;2023-05-19T06:59:41;16.33;;;10.65;;
74630;SDS011;63138;55.082;38.804;2023-05-19T07:02:09;13.48;;;9.15;;
74630;SDS011;63138;55.082;38.804;2023-05-19T07:04:36;18.73;;;12.03;;
74630;SDS011;63138;55.082;38.804;2023-05-19T07:07:02;16.27;;;9.13;;
74630;SDS011;63138;55.082;38.804;2023-05-19T07:09:29;13.23;;;7.82;;
74630;SDS011;63138;55.082;38.804;2023-05-19T07:11:56;12.60;;;8.00;;
74630;SDS011;63138;55.082;38.804;2023-05-19T07:14:22;12.10;;;6.43;;
74630;SDS011;63138;55.082;38.804;2023-05-19T07:16:48;13.30;;;7.13;;
74630;SDS011;63138;55.082;38.804;2023-05-19T07:19:15;9.80;;;6.22;;
74630;SDS011;63138;55.082;38.804;2023-05-19T07:21:47;13.05;;;5.75;;
74630;SDS011;63138;55.082;38.804;2023-05-19T07:24:14;12.82;;;5.85;;
74630;SDS011;63138;55.082;38.804;2023-05-19T07:26:40;6.90;;;5.00;;
74630;SDS011;63138;55.082;38.804;2023-05-19T07:29:07;8.43;;;6.13;;
74630;SDS011;63138;55.082;38.804;2023-05-19T07:31:33;8.68;;;4.97;;
74630;SDS011;63138;55.082;38.804;2023-05-19T07:33:59;6.82;;;4.15;;
74630;SDS011;63138;55.082;38.804;2023-05-19T07:36:25;11.23;;;5.17;;
74630;SDS011;63138;55.082;38.804;2023-05-19T07:38:51;10.35;;;5.90;;
74630;SDS011;63138;55.082;38.804;2023-05-19T07:41:17;11.07;;;7.80;;
74630;SDS011;63138;55.082;38.804;2023-05-19T07:43:43;13.60;;;8.80;;
74630;SDS011;63138;55.082;38.804;2023-05-19T07:46:09;8.43;;;6.43;;
74630;SDS011;63138;55.082;38.804;2023-05-19T07:48:35;10.02;;;7.18;;
74630;SDS011;63138;55.082;38.804;2023-05-19T07:51:01;10.75;;;7.28;;
74630;SDS011;63138;55.082;38.804;2023-05-19T07:53:46;16.65;;;9.13;;
74630;SDS011;63138;55.082;38.804;2023-05-19T07:56:13;14.17;;;8.60;;
74630;SDS011;63138;55.082;38.804;2023-05-19T07:58:57;12.98;;;7.60;;
74630;SDS011;63138;55.082;38.804;2023-05-19T08:01:42;14.60;;;8.13;;
74630;SDS011;63138;55.082;38.804;2023-05-19T08:04:08;13.27;;;8.80;;
74630;SDS011;63138;55.082;38.804;2023-05-19T08:06:53;14.43;;;8.30;;
74630;SDS011;63138;55.082;38.804;2023-05-19T08:09:19;14.07;;;8.53;;
74630;SDS011;63138;55.082;38.804;2023-05-19T08:11:45;14.10;;;8.13;;
74630;SDS011;63138;55.082;38.804;2023-05-19T08:14:14;11.07;;;5.78;;
74630;SDS011;63138;55.082;38.804;2023-05-19T08:16:40;9.63;;;6.53;;
74630;SDS011;63138;55.082;38.804;2023-05-19T08:19:07;13.23;;;5.57;;
74630;SDS011;63138;55.082;38.804;2023-05-19T08:21:33;8.30;;;5.05;;
74630;SDS011;63138;55.082;38.804;2023-05-19T08:24:00;8.45;;;5.60;;
74630;SDS011;63138;55.082;38.804;2023-05-19T08:26:27;7.97;;;4.95;;
74630;SDS011;63138;55.082;38.804;2023-05-19T08:28:53;9.73;;;5.47;;
74630;SDS011;63138;55.082;38.804;2023-05-19T08:31:19;8.93;;;5.77;;
74630;SDS011;63138;55.082;38.804;2023-05-19T08:33:45;13.48;;;5.80;;
74630;SDS011;63138;55.082;38.804;2023-05-19T08:36:13;12.38;;;4.50;;
74630;SDS011;63138;55.082;38.804;2023-05-19T08:38:39;8.93;;;5.43;;
74630;SDS011;63138;55.082;38.804;2023-05-19T08:41:05;7.53;;;4.90;;
74630;SDS011;63138;55.082;38.804;2023-05-19T08:43:31;8.55;;;5.03;;
74630;SDS011;63138;55.082;38.804;2023-05-19T08:45:58;12.63;;;5.45;;
74630;SDS011;63138;55.082;38.804;2023-05-19T08:48:27;12.52;;;5.07;;
74630;SDS011;63138;55.082;38.804;2023-05-19T08:50:56;13.03;;;5.00;;
74630;SDS011;63138;55.082;38.804;2023-05-19T08:53:36;9.63;;;4.78;;
74630;SDS011;63138;55.082;38.804;2023-05-19T08:56:13;9.95;;;4.72;;
74630;SDS011;63138;55.082;38.804;2023-05-19T08:58:44;9.52;;;4.38;;
74630;SDS011;63138;55.082;38.804;2023-05-19T09:01:14;7.57;;;4.80;;
74630;SDS011;63138;55.082;38.804;2023-05-19T09:03:42;8.93;;;5.27;;
74630;SDS011;63138;55.082;38.804;2023-05-19T09:06:09;8.50;;;4.93;;
74630;SDS011;63138;55.082;38.804;2023-05-19T09:08:40;8.68;;;4.53;;
74630;SDS011;63138;55.082;38.804;2023-05-19T09:11:07;8.48;;;4.95;;
74630;SDS011;63138;55.082;38.804;2023-05-19T09:13:34;8.93;;;4.65;;
74630;SDS011;63138;55.082;38.804;2023-05-19T09:16:03;10.47;;;4.73;;
74630;SDS011;63138;55.082;38.804;2023-05-19T09:21:28;6.45;;;4.18;;
74630;SDS011;63138;55.082;38.804;2023-05-19T09:24:04;11.02;;;4.55;;
74630;SDS011;63138;55.082;38.804;2023-05-19T09:26:35;5.75;;;3.78;;
74630;SDS011;63138;55.082;38.804;2023-05-19T09:29:09;9.03;;;4.27;;
74630;SDS011;63138;55.082;38.804;2023-05-19T09:31:47;6.65;;;4.72;;
74630;SDS011;63138;55.082;38.804;2023-05-19T09:34:19;6.95;;;4.53;;
74630;SDS011;63138;55.082;38.804;2023-05-19T09:36:46;6.78;;;4.18;;
74630;SDS011;63138;55.082;38.804;2023-05-19T09:39:18;8.25;;;4.55;;
74630;SDS011;63138;55.082;38.804;2023-05-19T09:41:45;8.17;;;4.93;;
74630;SDS011;63138;55.082;38.804;2023-05-19T09:44:21;8.82;;;4.63;;
74630;SDS011;63138;55.082;38.804;2023-05-19T09:46:51;8.98;;;4.40;;
74630;SDS011;63138;55.082;38.804;2023-05-19T09:49:22;6.18;;;4.47;;
74630;SDS011;63138;55.082;38.804;2023-05-19T09:51:49;13.40;;;4.63;;
74630;SDS011;63138;55.082;38.804;2023-05-19T09:54:38;6.87;;;3.80;;
74630;SDS011;63138;55.082;38.804;2023-05-19T09:57:04;8.73;;;4.38;;
74630;SDS011;63138;55.082;38.804;2023-05-19T09:59:32;9.73;;;5.43;;
74630;SDS011;63138;55.082;38.804;2023-05-19T10:01:59;8.82;;;5.38;;
74630;SDS011;63138;55.082;38.804;2023-05-19T10:04:26;10.23;;;5.65;;
74630;SDS011;63138;55.082;38.804;2023-05-19T10:06:53;7.27;;;5.33;;
74630;SDS011;63138;55.082;38.804;2023-05-19T10:09:26;6.78;;;4.78;;
74630;SDS011;63138;55.082;38.804;2023-05-19T10:11:53;7.15;;;4.88;;
74630;SDS011;63138;55.082;38.804;2023-05-19T10:14:24;7.90;;;4.75;;
74630;SDS011;63138;55.082;38.804;2023-05-19T10:16:53;9.98;;;5.05;;
74630;SDS011;63138;55.082;38.804;2023-05-19T10:19:20;8.37;;;5.03;;
74630;SDS011;63138;55.082;38.804;2023-05-19T10:21:48;6.40;;;4.30;;
74630;SDS011;63138;55.082;38.804;2023-05-19T10:24:14;7.57;;;4.30;;
74630;SDS011;63138;55.082;38.804;2023-05-19T10:26:47;5.68;;;3.97;;
74630;SDS011;63138;55.082;38.804;2023-05-19T10:29:20;6.35;;;4.20;;
74630;SDS011;63138;55.082;38.804;2023-05-19T10:31:51;6.30;;;3.80;;
74630;SDS011;63138;55.082;38.804;2023-05-19T10:34:31;5.45;;;3.47;;
74630;SDS011;63138;55.082;38.804;2023-05-19T10:37:16;7.30;;;3.97;;
74630;SDS011;63138;55.082;38.804;2023-05-19T10:39:55;5.07;;;3.65;;
74630;SDS011;63138;55.082;38.804;2023-05-19T10:45:33;5.67;;;3.80;;
74630;SDS011;63138;55.082;38.804;2023-05-19T10:48:10;5.47;;;3.33;;
74630;SDS011;63138;55.082;38.804;2023-05-19T10:50:38;5.68;;;3.70;;
74630;SDS011;63138;55.082;38.804;2023-05-19T10:53:12;6.63;;;3.65;;
74630;SDS011;63138;55.082;38.804;2023-05-19T10:58:36;3.70;;;2.65;;
74630;SDS011;63138;55.082;38.804;2023-05-19T11:01:12;8.20;;;3.60;;
74630;SDS011;63138;55.082;38.804;2023-05-19T11:03:44;6.13;;;3.70;;
74630;SDS011;63138;55.082;38.804;2023-05-19T11:06:32;5.20;;;3.67;;
74630;SDS011;63138;55.082;38.804;2023-05-19T11:09:10;4.37;;;2.70;;
74630;SDS011;63138;55.082;38.804;2023-05-19T11:11:49;5.78;;;3.63;;
74630;SDS011;63138;55.082;38.804;2023-05-19T11:14:20;8.15;;;3.90;;
74630;SDS011;63138;55.082;38.804;2023-05-19T11:17:11;6.47;;;3.95;;
74630;SDS011;63138;55.082;38.804;2023-05-19T11:19:53;6.00;;;3.78;;
74630;SDS011;63138;55.082;38.804;2023-05-19T11:22:26;6.83;;;4.20;;
74630;SDS011;63138;55.082;38.804;2023-05-19T11:24:56;7.07;;;4.35;;
74630;SDS011;63138;55.082;38.804;2023-05-19T11:27:32;7.05;;;4.28;;
74630;SDS011;63138;55.082;38.804;2023-05-19T11:30:01;5.88;;;4.03;;
74630;SDS011;63138;55.082;38.804;2023-05-19T11:32:36;5.50;;;4.35;;
74630;SDS011;63138;55.082;38.804;2023-05-19T11:35:03;7.60;;;4.97;;
74630;SDS011;63138;55.082;38.804;2023-05-19T11:37:32;8.15;;;4.65;;
74630;SDS011;63138;55.082;38.804;2023-05-19T11:40:03;8.98;;;4.65;;
74630;SDS011;63138;55.082;38.804;2023-05-19T11:42:49;6.82;;;3.63;;
74630;SDS011;63138;55.082;38.804;2023-05-19T11:45:15;6.50;;;4.88;;
74630;SDS011;63138;55.082;38.804;2023-05-19T11:47:41;6.60;;;4.67;;
74630;SDS011;63138;55.082;38.804;2023-05-19T11:50:10;6.05;;;4.30;;
74630;SDS011;63138;55.082;38.804;2023-05-19T11:52:37;7.35;;;5.07;;
74630;SDS011;63138;55.082;38.804;2023-05-19T11:55:13;8.93;;;5.43;;
74630;SDS011;63138;55.082;38.804;2023-05-19T11:57:40;8.75;;;5.32;;
74630;SDS011;63138;55.082;38.804;2023-05-19T12:00:06;9.77;;;5.27;;
74630;SDS011;63138;55.082;38.804;2023-05-19T12:02:34;6.88;;;5.28;;
74630;SDS011;63138;55.082;38.804;2023-05-19T12:05:00;8.38;;;5.78;;
74630;SDS011;63138;55.082;38.804;2023-05-19T12:07:26;7.30;;;4.93;;
74630;SDS011;63138;55.082;38.804;2023-05-19T12:09:53;7.75;;;5.45;;
74630;SDS011;63138;55.082;38.804;2023-05-19T12:12:22;6.60;;;5.30;;
74630;SDS011;63138;55.082;38.804;2023-05-19T12:14:51;8.60;;;5.28;;
74630;SDS011;63138;55.082;38.804;2023-05-19T12:17:18;8.27;;;5.25;;
74630;SDS011;63138;55.082;38.804;2023-05-19T12:19:45;8.27;;;4.67;;
74630;SDS011;63138;55.082;38.804;2023-05-19T12:22:17;8.32;;;5.13;;
74630;SDS011;63138;55.082;38.804;2023-05-19T12:24:44;11.95;;;5.97;;
74630;SDS011;63138;55.082;38.804;2023-05-19T12:27:15;8.38;;;5.63;;
74630;SDS011;63138;55.082;38.804;2023-05-19T12:29:55;7.50;;;5.28;;
74630;SDS011;63138;55.082;38.804;2023-05-19T12:32:24;9.63;;;5.63;;
74630;SDS011;63138;55.082;38.804;2023-05-19T12:34:52;10.50;;;6.60;;
74630;SDS011;63138;55.082;38.804;2023-05-19T12:37:20;8.45;;;5.70;;
74630;SDS011;63138;55.082;38.804;2023-05-19T12:39:47;8.95;;;5.72;;
74630;SDS011;63138;55.082;38.804;2023-05-19T12:42:14;8.77;;;5.78;;
74630;SDS011;63138;55.082;38.804;2023-05-19T12:44:45;8.33;;;6.20;;
74630;SDS011;63138;55.082;38.804;2023-05-19T12:47:13;9.35;;;5.07;;
74630;SDS011;63138;55.082;38.804;2023-05-19T12:50:13;8.15;;;6.03;;
74630;SDS011;63138;55.082;38.804;2023-05-19T12:52:44;8.05;;;5.55;;
74630;SDS011;63138;55.082;38.804;2023-05-19T12:55:11;9.43;;;6.32;;
74630;SDS011;63138;55.082;38.804;2023-05-19T12:57:39;10.87;;;6.30;;
74630;SDS011;63138;55.082;38.804;2023-05-19T13:00:11;9.27;;;6.70;;
74630;SDS011;63138;55.082;38.804;2023-05-19T13:02:55;8.43;;;5.72;;
74630;SDS011;63138;55.082;38.804;2023-05-19T13:05:26;8.35;;;6.32;;
74630;SDS011;63138;55.082;38.804;2023-05-19T13:07:56;14.40;;;7.88;;
74630;SDS011;63138;55.082;38.804;2023-05-19T13:10:23;8.87;;;6.23;;
74630;SDS011;63138;55.082;38.804;2023-05-19T13:12:55;9.88;;;6.20;;
74630;SDS011;63138;55.082;38.804;2023-05-19T13:15:24;11.15;;;7.20;;
74630;SDS011;63138;55.082;38.804;2023-05-19T13:17:52;8.85;;;6.20;;
74630;SDS011;63138;55.082;38.804;2023-05-19T13:20:19;8.55;;;5.95;;
74630;SDS011;63138;55.082;38.804;2023-05-19T13:22:49;9.57;;;6.43;;
74630;SDS011;63138;55.082;38.804;2023-05-19T13:25:15;9.07;;;6.90;;
74630;SDS011;63138;55.082;38.804;2023-05-19T13:27:41;8.80;;;6.40;;
74630;SDS011;63138;55.082;38.804;2023-05-19T13:30:10;10.48;;;6.47;;
74630;SDS011;63138;55.082;38.804;2023-05-19T13:32:36;11.98;;;7.38;;
74630;SDS011;63138;55.082;38.804;2023-05-19T13:35:02;10.23;;;5.83;;
74630;SDS011;63138;55.082;38.804;2023-05-19T13:37:29;11.23;;;6.43;;
74630;SDS011;63138;55.082;38.804;2023-05-19T13:39:55;10.35;;;6.93;;
74630;SDS011;63138;55.082;38.804;2023-05-19T13:42:22;10.30;;;7.10;;
74630;SDS011;63138;55.082;38.804;2023-05-19T13:44:48;8.53;;;6.00;;
74630;SDS011;63138;55.082;38.804;2023-05-19T13:47:18;8.85;;;5.93;;
74630;SDS011;63138;55.082;38.804;2023-05-19T13:49:44;9.02;;;6.38;;
74630;SDS011;63138;55.082;38.804;2023-05-19T13:52:10;8.30;;;5.70;;
74630;SDS011;63138;55.082;38.804;2023-05-19T13:54:37;8.53;;;5.33;;
74630;SDS011;63138;55.082;38.804;2023-05-19T13:57:03;8.60;;;6.10;;
74630;SDS011;63138;55.082;38.804;2023-05-19T13:59:30;8.35;;;5.97;;
74630;SDS011;63138;55.082;38.804;2023-05-19T14:01:57;8.95;;;5.78;;
74630;SDS011;63138;55.082;38.804;2023-05-19T14:04:23;8.93;;;6.73;;
74630;SDS011;63138;55.082;38.804;2023-05-19T14:06:49;10.70;;;7.60;;
74630;SDS011;63138;55.082;38.804;2023-05-19T14:09:16;7.57;;;5.90;;
74630;SDS011;63138;55.082;38.804;2023-05-19T14:11:42;10.35;;;6.57;;
74630;SDS011;63138;55.082;38.804;2023-05-19T14:14:08;10.60;;;6.90;;
74630;SDS011;63138;55.082;38.804;2023-05-19T14:16:34;10.10;;;6.18;;
74630;SDS011;63138;55.082;38.804;2023-05-19T14:19:00;10.55;;;6.70;;
74630;SDS011;63138;55.082;38.804;2023-05-19T14:21:26;7.97;;;5.30;;
74630;SDS011;63138;55.082;38.804;2023-05-19T14:23:52;9.57;;;5.60;;
74630;SDS011;63138;55.082;38.804;2023-05-19T14:26:18;6.55;;;5.20;;
74630;SDS011;63138;55.082;38.804;2023-05-19T14:28:44;8.07;;;5.45;;
74630;SDS011;63138;55.082;38.804;2023-05-19T14:31:11;6.43;;;4.90;;
74630;SDS011;63138;55.082;38.804;2023-05-19T14:33:38;11.18;;;4.55;;
74630;SDS011;63138;55.082;38.804;2023-05-19T14:36:05;7.18;;;4.45;;
74630;SDS011;63138;55.082;38.804;2023-05-19T14:38:31;8.82;;;4.93;;
74630;SDS011;63138;55.082;38.804;2023-05-19T14:40:57;8.07;;;5.18;;
74630;SDS011;63138;55.082;38.804;2023-05-19T14:43:23;10.53;;;4.50;;
74630;SDS011;63138;55.082;38.804;2023-05-19T14:45:49;9.60;;;5.63;;
74630;SDS011;63138;55.082;38.804;2023-05-19T14:48:15;10.05;;;4.70;;
74630;SDS011;63138;55.082;38.804;2023-05-19T14:50:42;8.83;;;4.63;;
74630;SDS011;63138;55.082;38.804;2023-05-19T14:53:27;7.45;;;4.80;;
74630;SDS011;63138;55.082;38.804;2023-05-19T14:55:53;7.30;;;4.38;;